Time;durP1;ratioP1;P1;durP2;ratioP2;P2;SDS_P1;SDS_P2;PMS_P1;PMS_P2;Temp;Humidity;BMP_temperature;BMP_pressure;BME280_temperature;BME280_humidity;BME280_pressure;Samples;Min_cycle;Max_cycle;Signal;HPM_P1;HPM_P2
2023/05/12 00:02:07;;;;;;;26.43;17.60;;;15.00;1.00;;;;;;5068418;28;20265;-81
2023/05/12 00:04:34;;;;;;;23.80;16.80;;;15.00;1.00;;;;;;5088425;28;20183;-79
2023/05/12 00:07:00;;;;;;;25.37;17.37;;;14.90;1.00;;;;;;5091183;28;20180;-83
2023/05/12 00:09:25;;;;;;;23.27;17.63;;;14.90;1.00;;;;;;5096221;28;20420;-81
2023/05/12 00:11:51;;;;;;;28.10;18.77;;;14.90;1.00;;;;;;5096344;28;20183;-80
2023/05/12 00:14:16;;;;;;;24.57;17.90;;;14.90;1.00;;;;;;5092340;28;20199;-81
2023/05/12 00:16:42;;;;;;;21.63;17.20;;;14.90;1.00;;;;;;5075766;28;20192;-82
2023/05/12 00:19:08;;;;;;;25.60;16.43;;;14.90;1.00;;;;;;5084476;28;20718;-80
2023/05/12 00:21:34;;;;;;;22.70;16.80;;;14.80;1.00;;;;;;5094485;28;20175;-81
2023/05/12 00:23:59;;;;;;;23.33;16.97;;;14.80;1.00;;;;;;5094819;28;20523;-82
2023/05/12 00:26:25;;;;;;;27.40;17.80;;;14.80;1.00;;;;;;5082119;28;20542;-82
2023/05/12 00:28:50;;;;;;;22.33;17.67;;;14.80;1.00;;;;;;5094973;28;20198;-81
2023/05/12 00:31:16;;;;;;;26.33;17.60;;;14.80;1.00;;;;;;5094511;28;20186;-81
2023/05/12 00:33:41;;;;;;;25.40;17.10;;;14.80;1.00;;;;;;5091556;28;20209;-81
2023/05/12 00:36:07;;;;;;;22.30;17.27;;;14.80;1.00;;;;;;5079946;28;20191;-81
2023/05/12 00:38:33;;;;;;;24.40;16.97;;;14.70;1.00;;;;;;5093110;28;20236;-79
2023/05/12 00:40:59;;;;;;;26.37;19.53;;;14.70;1.00;;;;;;5091201;28;20180;-82
2023/05/12 00:43:25;;;;;;;29.53;18.90;;;14.70;1.00;;;;;;5092776;28;20879;-82
2023/05/12 00:45:51;;;;;;;28.57;19.43;;;14.60;1.00;;;;;;5095324;28;20472;-81
2023/05/12 00:48:17;;;;;;;29.57;19.77;;;14.60;1.00;;;;;;5087621;28;20191;-81
2023/05/12 00:50:42;;;;;;;25.43;18.23;;;14.60;1.00;;;;;;5075283;28;20447;-79
2023/05/12 00:53:08;;;;;;;22.27;16.83;;;14.60;1.00;;;;;;5078687;28;20453;-82
2023/05/12 00:55:35;;;;;;;27.33;17.70;;;14.70;1.00;;;;;;5093994;28;20886;-81
2023/05/12 00:58:01;;;;;;;22.40;16.57;;;14.60;1.00;;;;;;5090232;28;20435;-81
2023/05/12 01:00:27;;;;;;;19.03;14.23;;;14.60;1.00;;;;;;5095201;28;21033;-82
2023/05/12 01:02:53;;;;;;;17.40;14.27;;;14.60;1.00;;;;;;5091176;28;20460;-79
2023/05/12 01:05:18;;;;;;;21.57;14.60;;;14.60;1.00;;;;;;5095233;28;20176;-80
2023/05/12 01:07:46;;;;;;;15.20;11.00;;;14.70;1.00;;;;;;5079558;28;21032;-82
2023/05/12 01:10:19;;;;;;;11.20;8.20;;;14.70;1.00;;;;;;5095443;28;20183;-80
2023/05/12 01:12:45;;;;;;;12.23;7.83;;;14.70;1.00;;;;;;5091948;28;20873;-80
2023/05/12 01:15:11;;;;;;;15.87;10.30;;;14.70;1.00;;;;;;5087568;28;20428;-81
2023/05/12 01:17:41;;;;;;;13.90;9.67;;;14.60;1.00;;;;;;5089462;28;20187;-79
2023/05/12 01:20:07;;;;;;;15.00;11.27;;;14.60;1.00;;;;;;5087561;28;20471;-78
2023/05/12 01:22:34;;;;;;;17.97;13.50;;;14.60;1.00;;;;;;5094500;28;20433;-80
2023/05/12 01:25:01;;;;;;;18.80;13.97;;;14.60;1.00;;;;;;5085955;28;20435;-83
2023/05/12 01:27:28;;;;;;;18.20;12.80;;;14.60;1.00;;;;;;5070689;28;20949;-81
2023/05/12 01:29:56;;;;;;;17.13;12.93;;;14.60;1.00;;;;;;5090161;28;20440;-81
2023/05/12 01:32:22;;;;;;;15.30;12.20;;;14.60;1.00;;;;;;5093127;28;20958;-80
2023/05/12 01:34:49;;;;;;;12.60;10.40;;;14.70;1.00;;;;;;5094494;28;20494;-80
2023/05/12 01:37:14;;;;;;;14.67;12.00;;;14.70;1.00;;;;;;5084515;28;20254;-80
2023/05/12 01:39:40;;;;;;;13.83;11.47;;;14.70;1.00;;;;;;5086675;28;20468;-83
2023/05/12 01:42:06;;;;;;;14.30;10.90;;;14.80;1.00;;;;;;5075614;28;20180;-80
2023/05/12 01:44:32;;;;;;;13.77;11.67;;;14.80;1.00;;;;;;5085039;28;20199;-81
2023/05/12 01:46:57;;;;;;;14.87;11.87;;;14.80;1.00;;;;;;5078157;28;20561;-82
2023/05/12 01:49:23;;;;;;;11.93;10.00;;;14.80;1.00;;;;;;5087683;28;20495;-82
2023/05/12 01:51:49;;;;;;;10.60;9.50;;;14.80;1.00;;;;;;5092978;28;20754;-81
2023/05/12 01:54:14;;;;;;;10.27;7.60;;;14.80;1.00;;;;;;5094806;28;20557;-82
2023/05/12 01:56:40;;;;;;;16.67;11.00;;;14.80;1.00;;;;;;5094833;28;20182;-82
2023/05/12 01:59:06;;;;;;;16.60;12.93;;;14.90;1.00;;;;;;5092132;28;20223;-80
2023/05/12 02:01:31;;;;;;;12.00;10.13;;;14.80;1.00;;;;;;5074950;28;20182;-80
2023/05/12 02:03:58;;;;;;;9.90;8.30;;;14.80;1.00;;;;;;5094374;28;20440;-81
2023/05/12 02:06:24;;;;;;;10.37;8.20;;;14.70;1.00;;;;;;5093247;28;20245;-80
2023/05/12 02:08:50;;;;;;;12.07;9.00;;;14.70;1.00;;;;;;5092636;28;20609;-82
2023/05/12 02:11:16;;;;;;;9.90;8.37;;;14.80;1.00;;;;;;5089077;28;20440;-81
2023/05/12 02:13:43;;;;;;;10.30;8.33;;;14.80;1.00;;;;;;5094259;28;20194;-81
2023/05/12 02:16:09;;;;;;;17.73;11.77;;;14.80;1.00;;;;;;5094318;28;20265;-82
2023/05/12 02:18:35;;;;;;;16.43;12.30;;;14.80;1.00;;;;;;5077725;28;20528;-82
2023/05/12 02:21:00;;;;;;;13.67;11.40;;;14.80;1.00;;;;;;5087125;28;20946;-81
2023/05/12 02:23:26;;;;;;;18.70;12.70;;;14.80;1.00;;;;;;5093425;28;20546;-81
2023/05/12 02:25:51;;;;;;;12.20;8.33;;;14.80;1.00;;;;;;5092189;28;20295;-79
2023/05/12 02:28:17;;;;;;;12.27;9.77;;;14.80;1.00;;;;;;5081160;28;20663;-83
2023/05/12 02:30:47;;;;;;;12.20;9.07;;;14.80;1.00;;;;;;5084959;28;20191;-82
2023/05/12 02:33:14;;;;;;;7.70;6.90;;;14.80;1.00;;;;;;5086823;28;20395;-80
2023/05/12 02:35:39;;;;;;;9.63;7.67;;;14.80;1.00;;;;;;5077639;28;20436;-80
2023/05/12 02:38:05;;;;;;;9.67;7.37;;;14.80;1.00;;;;;;5092807;28;20795;-81
2023/05/12 02:40:30;;;;;;;12.07;9.57;;;14.70;1.00;;;;;;5091865;28;20269;-79
2023/05/12 02:42:56;;;;;;;12.10;9.47;;;14.70;1.00;;;;;;5091454;28;20576;-81
2023/05/12 02:45:21;;;;;;;12.47;10.03;;;14.70;1.00;;;;;;5093925;28;20273;-80
2023/05/12 02:47:47;;;;;;;12.00;9.77;;;14.70;1.00;;;;;;5092986;28;20281;-81
2023/05/12 02:50:13;;;;;;;9.60;7.70;;;14.70;1.00;;;;;;5080678;28;20179;-81
2023/05/12 02:52:39;;;;;;;6.53;5.40;;;14.70;1.00;;;;;;5082648;28;20216;-80
2023/05/12 02:55:04;;;;;;;6.67;5.37;;;14.60;1.00;;;;;;5089788;28;20933;-82
2023/05/12 02:57:33;;;;;;;5.87;4.80;;;14.50;1.00;;;;;;5091783;28;20235;-81
2023/05/12 03:00:05;;;;;;;5.60;4.60;;;14.40;1.00;;;;;;5092171;28;20209;-81
2023/05/12 03:02:35;;;;;;;4.87;4.37;;;14.20;1.00;;;;;;5086725;28;20521;-80
2023/05/12 03:05:01;;;;;;;5.63;4.50;;;14.10;1.00;;;;;;5094178;28;20411;-81
2023/05/12 03:07:27;;;;;;;5.33;4.80;;;14.00;1.00;;;;;;5089983;28;20411;-81
2023/05/12 03:09:52;;;;;;;6.33;4.70;;;14.00;1.00;;;;;;5076899;28;20452;-81
2023/05/12 03:12:18;;;;;;;5.87;4.63;;;13.90;1.00;;;;;;5092202;28;20630;-81
2023/05/12 03:14:43;;;;;;;6.43;4.87;;;13.80;1.00;;;;;;5092650;28;20552;-80
2023/05/12 03:17:09;;;;;;;5.20;4.63;;;13.80;1.00;;;;;;5092021;28;20176;-80
2023/05/12 03:19:35;;;;;;;4.73;4.00;;;13.80;1.00;;;;;;5093290;28;20576;-81
2023/05/12 03:22:02;;;;;;;6.20;4.90;;;13.90;1.00;;;;;;5085892;28;20187;-82
2023/05/12 03:24:27;;;;;;;5.90;4.00;;;13.90;1.00;;;;;;5067371;28;20441;-81
2023/05/12 03:26:53;;;;;;;3.73;3.30;;;14.00;1.00;;;;;;5089743;28;20424;-79
2023/05/12 03:29:19;;;;;;;3.00;2.40;;;14.00;1.00;;;;;;5090482;28;20421;-82
2023/05/12 03:31:45;;;;;;;4.00;3.10;;;14.00;1.00;;;;;;5090374;28;20426;-79
2023/05/12 03:34:10;;;;;;;3.70;2.70;;;14.00;1.00;;;;;;5086702;28;20629;-81
2023/05/12 03:36:36;;;;;;;3.07;2.73;;;14.10;1.00;;;;;;5092655;28;20241;-81
2023/05/12 03:39:02;;;;;;;3.47;2.40;;;14.10;1.00;;;;;;5095410;28;20212;-82
2023/05/12 03:41:27;;;;;;;2.00;1.70;;;14.10;1.00;;;;;;5079738;28;20178;-79
2023/05/12 03:43:53;;;;;;;2.70;2.20;;;14.10;1.00;;;;;;5093881;28;20472;-80
2023/05/12 03:46:19;;;;;;;3.00;1.83;;;14.10;1.00;;;;;;5096244;28;20182;-82
2023/05/12 03:48:45;;;;;;;3.40;2.30;;;14.00;1.00;;;;;;5092007;28;20181;-80
2023/05/12 03:51:11;;;;;;;3.40;1.90;;;14.00;1.00;;;;;;5095504;28;20468;-80
2023/05/12 03:53:36;;;;;;;2.50;2.30;;;14.00;1.00;;;;;;5087097;28;20984;-81
2023/05/12 03:56:05;;;;;;;4.60;2.30;;;14.00;1.00;;;;;;5095301;28;20233;-83
2023/05/12 03:58:31;;;;;;;2.63;2.00;;;14.00;1.00;;;;;;5093110;28;20214;-81
2023/05/12 04:00:56;;;;;;;2.67;2.20;;;14.10;1.00;;;;;;5081965;28;20446;-82
2023/05/12 04:03:22;;;;;;;2.70;2.37;;;14.00;1.00;;;;;;5087660;28;20259;-81
2023/05/12 04:05:48;;;;;;;2.90;2.30;;;14.10;1.00;;;;;;5096387;28;20194;-80
2023/05/12 04:08:13;;;;;;;3.20;2.47;;;14.10;1.00;;;;;;5093415;28;20173;-80
2023/05/12 04:10:39;;;;;;;2.53;2.20;;;14.10;1.00;;;;;;5089759;28;20190;-83
2023/05/12 04:13:06;;;;;;;3.43;2.50;;;14.10;1.00;;;;;;5092437;28;20258;-80
2023/05/12 04:15:35;;;;;;;2.40;2.00;;;14.10;1.00;;;;;;5098717;28;20820;-80
2023/05/12 04:18:04;;;;;;;2.87;1.73;;;14.20;1.00;;;;;;5071310;28;21268;-80
2023/05/12 04:20:29;;;;;;;2.70;2.20;;;14.20;1.00;;;;;;5095465;28;20461;-83
2023/05/12 04:22:55;;;;;;;2.90;2.40;;;14.20;1.00;;;;;;5064343;28;21047;-82
2023/05/12 04:25:21;;;;;;;2.70;2.20;;;14.20;1.00;;;;;;5080501;28;20567;-81
2023/05/12 04:27:46;;;;;;;3.13;2.50;;;14.30;1.00;;;;;;5094805;28;20428;-81
2023/05/12 04:30:12;;;;;;;2.90;2.17;;;14.30;1.00;;;;;;5096109;28;20180;-83
2023/05/12 04:32:37;;;;;;;4.43;2.03;;;14.30;1.00;;;;;;5093376;28;20654;-80
2023/05/12 04:35:03;;;;;;;2.50;2.30;;;14.40;1.00;;;;;;5091124;28;20208;-81
2023/05/12 04:37:28;;;;;;;2.87;2.57;;;14.40;1.00;;;;;;5093023;28;20182;-83
2023/05/12 04:39:54;;;;;;;2.83;2.50;;;14.50;1.00;;;;;;5078246;28;20245;-81
2023/05/12 04:42:19;;;;;;;2.93;2.60;;;14.50;1.00;;;;;;5095588;28;20213;-81
2023/05/12 04:44:45;;;;;;;3.73;3.10;;;14.50;1.00;;;;;;5083185;28;20610;-82
2023/05/12 04:47:11;;;;;;;3.20;2.70;;;14.40;1.00;;;;;;5087457;28;20180;-82
2023/05/12 04:49:36;;;;;;;5.70;2.97;;;14.40;1.00;;;;;;5095113;28;20596;-80
2023/05/12 04:52:04;;;;;;;3.33;2.23;;;14.40;1.00;;;;;;5087070;28;20221;-82
2023/05/12 04:54:30;;;;;;;3.83;2.20;;;14.40;1.00;;;;;;5082439;28;20216;-81
2023/05/12 04:56:56;;;;;;;4.97;1.90;;;14.40;1.00;;;;;;5089893;28;20442;-81
2023/05/12 04:59:22;;;;;;;2.30;1.87;;;14.40;1.00;;;;;;5092917;28;20481;-82
2023/05/12 05:01:47;;;;;;;2.50;2.07;;;14.40;1.00;;;;;;5092174;28;20180;-82
2023/05/12 05:04:13;;;;;;;2.90;2.60;;;14.50;1.00;;;;;;5093960;28;20260;-82
2023/05/12 05:06:38;;;;;;;2.33;2.00;;;14.50;1.00;;;;;;5090586;28;20239;-82
2023/05/12 05:09:04;;;;;;;3.40;2.13;;;14.60;1.00;;;;;;5093611;28;20195;-82
2023/05/12 05:11:29;;;;;;;2.63;2.10;;;14.60;1.00;;;;;;5089276;28;20620;-81
2023/05/12 05:13:55;;;;;;;2.47;2.27;;;14.60;99.90;;;;;;5073874;28;20214;-82
2023/05/12 05:16:20;;;;;;;3.87;2.50;;;14.50;99.90;;;;;;5081269;28;20194;-79
2023/05/12 05:18:46;;;;;;;2.43;2.00;;;14.50;99.90;;;;;;5085060;28;20258;-82
2023/05/12 05:21:15;;;;;;;4.67;2.40;;;14.50;99.90;;;;;;5086506;28;20194;-82
2023/05/12 05:23:41;;;;;;;2.30;2.00;;;14.50;1.00;;;;;;5095186;28;20697;-80
2023/05/12 05:26:07;;;;;;;4.47;4.07;;;14.60;99.90;;;;;;5088980;28;20442;-79
2023/05/12 05:28:33;;;;;;;3.87;3.40;;;14.60;99.90;;;;;;5071283;28;20573;-83
2023/05/12 05:30:59;;;;;;;6.43;3.33;;;14.60;99.90;;;;;;5092450;28;20423;-79
2023/05/12 05:33:24;;;;;;;8.10;3.90;;;14.60;99.90;;;;;;5101285;28;20261;-82
2023/05/12 05:35:50;;;;;;;7.50;3.80;;;14.70;99.90;;;;;;5095151;28;20184;-81
2023/05/12 05:38:15;;;;;;;4.27;3.37;;;14.70;99.90;;;;;;5094718;28;20224;-80
2023/05/12 05:40:41;;;;;;;12.30;3.80;;;14.70;99.90;;;;;;5095006;28;20202;-82
2023/05/12 05:43:06;;;;;;;3.40;3.10;;;14.70;99.90;;;;;;5089834;28;20228;-81
2023/05/12 05:45:32;;;;;;;3.87;3.13;;;14.70;99.90;;;;;;5090017;28;20568;-82
2023/05/12 05:47:58;;;;;;;6.00;3.50;;;14.70;1.00;;;;;;5074039;28;20184;-82
2023/05/12 05:50:23;;;;;;;4.60;3.80;;;14.80;1.00;;;;;;5070597;28;20659;-80
2023/05/12 05:52:49;;;;;;;4.77;3.83;;;14.90;1.00;;;;;;5065633;28;20208;-81
2023/05/12 05:55:14;;;;;;;5.50;4.00;;;15.00;1.00;;;;;;5068401;28;20184;-81
2023/05/12 05:57:40;;;;;;;6.07;3.83;;;15.10;99.90;;;;;;5089704;28;20183;-80
2023/05/12 06:00:09;;;;;;;8.00;4.90;;;15.20;99.90;;;;;;5093019;28;20207;-80
2023/05/12 06:02:35;;;;;;;4.87;4.00;;;15.10;99.90;;;;;;5096119;28;20199;-83
2023/05/12 06:05:01;;;;;;;7.43;3.80;;;15.00;99.90;;;;;;5099189;28;20424;-82
2023/05/12 06:07:27;;;;;;;5.90;4.33;;;15.00;99.90;;;;;;5088126;28;20429;-83
2023/05/12 06:09:53;;;;;;;4.60;3.93;;;15.00;99.90;;;;;;5085060;28;20187;-82
2023/05/12 06:12:18;;;;;;;4.70;4.00;;;15.00;99.90;;;;;;5070295;28;20207;-83
2023/05/12 06:14:44;;;;;;;6.40;4.50;;;15.00;99.90;;;;;;5066044;28;20927;-83
2023/05/12 06:17:09;;;;;;;4.93;3.57;;;15.00;99.90;;;;;;5095571;28;20175;-82
2023/05/12 06:19:35;;;;;;;5.03;3.93;;;14.90;99.90;;;;;;5080853;28;20199;-83
2023/05/12 06:22:01;;;;;;;5.67;4.30;;;14.90;99.90;;;;;;5087856;28;20182;-84
2023/05/12 06:24:27;;;;;;;6.50;4.17;;;14.90;99.90;;;;;;5094757;28;20297;-83
2023/05/12 06:26:52;;;;;;;6.07;4.57;;;14.90;99.90;;;;;;5087347;28;20435;-83
2023/05/12 06:29:20;;;;;;;6.20;4.43;;;14.90;99.90;;;;;;5086289;28;20201;-81
2023/05/12 06:31:45;;;;;;;6.07;4.87;;;14.90;99.90;;;;;;5073948;28;20249;-82
2023/05/12 06:34:11;;;;;;;9.43;5.83;;;14.90;99.90;;;;;;5080242;28;20470;-84
2023/05/12 06:36:36;;;;;;;6.50;5.30;;;15.00;99.90;;;;;;5093344;28;20194;-82
2023/05/12 06:39:03;;;;;;;7.90;4.70;;;15.00;99.90;;;;;;5084263;28;20253;-83
2023/05/12 06:41:28;;;;;;;5.30;4.77;;;15.00;99.90;;;;;;5090991;28;20175;-81
2023/05/12 06:43:54;;;;;;;6.03;4.80;;;15.00;99.90;;;;;;5097618;28;20486;-83
2023/05/12 06:46:20;;;;;;;6.90;4.80;;;15.00;99.90;;;;;;5084469;28;20183;-84
2023/05/12 06:48:45;;;;;;;5.87;3.87;;;15.00;90.80;;;;;;5078664;28;20190;-82
2023/05/12 06:51:12;;;;;;;6.73;3.67;;;15.00;1.00;;;;;;5083797;28;20190;-86
2023/05/12 06:53:38;;;;;;;6.63;4.10;;;15.00;1.00;;;;;;5096262;28;20235;-83
2023/05/12 06:56:04;;;;;;;5.17;4.10;;;14.90;1.00;;;;;;5094615;28;20449;-85
2023/05/12 06:58:30;;;;;;;4.70;4.30;;;14.90;1.00;;;;;;5085404;28;20499;-84
2023/05/12 07:00:56;;;;;;;5.47;4.30;;;14.90;1.00;;;;;;5098222;28;20430;-84
2023/05/12 07:03:22;;;;;;;6.67;4.70;;;14.80;1.00;;;;;;5073768;28;20206;-83
2023/05/12 07:05:47;;;;;;;5.80;5.20;;;14.80;1.00;;;;;;5086279;28;20477;-84
2023/05/12 07:08:13;;;;;;;5.37;4.87;;;14.80;1.00;;;;;;5097845;28;20628;-82
2023/05/12 07:10:38;;;;;;;6.27;4.77;;;14.80;1.00;;;;;;5098706;28;20191;-83
2023/05/12 07:13:04;;;;;;;5.27;4.70;;;14.80;1.00;;;;;;5095764;28;20211;-82
2023/05/12 07:15:30;;;;;;;6.30;5.10;;;14.80;1.00;;;;;;5085086;28;20195;-82
2023/05/12 07:17:56;;;;;;;5.83;5.03;;;14.80;1.00;;;;;;5082055;28;20433;-83
2023/05/12 07:20:21;;;;;;;5.13;4.00;;;14.80;99.90;;;;;;5078342;28;20219;-84
2023/05/12 07:22:47;;;;;;;9.23;5.10;;;14.80;1.00;;;;;;5085320;28;20754;-83
2023/05/12 07:25:13;;;;;;;6.20;5.03;;;14.80;1.00;;;;;;5081503;28;20263;-83
2023/05/12 07:27:38;;;;;;;5.63;5.07;;;14.80;1.00;;;;;;5077551;28;20181;-82
2023/05/12 07:30:07;;;;;;;7.87;5.03;;;14.80;1.00;;;;;;5079399;28;20206;-81
2023/05/12 07:32:33;;;;;;;7.30;5.13;;;14.80;1.00;;;;;;5064698;28;20275;-82
2023/05/12 07:34:59;;;;;;;6.30;4.80;;;14.90;1.00;;;;;;5070391;28;20463;-83
2023/05/12 07:37:25;;;;;;;7.63;5.30;;;15.00;1.00;;;;;;5071001;28;20606;-83
2023/05/12 07:39:51;;;;;;;7.07;5.60;;;15.10;1.00;;;;;;5063395;28;20205;-81
2023/05/12 07:42:16;;;;;;;8.73;7.03;;;15.30;1.00;;;;;;5064651;28;20319;-83
2023/05/12 07:44:42;;;;;;;8.40;6.87;;;15.30;99.90;;;;;;5069652;28;20656;-85
2023/05/12 07:47:08;;;;;;;8.63;5.60;;;15.40;99.90;;;;;;5074925;28;20240;-83
2023/05/12 07:49:33;;;;;;;6.30;4.77;;;15.40;99.90;;;;;;5072946;28;20510;-84
2023/05/12 07:51:59;;;;;;;8.40;4.50;;;15.40;99.90;;;;;;5086805;28;20273;-83
2023/05/12 07:54:25;;;;;;;12.43;5.33;;;15.50;99.90;;;;;;5080754;28;20247;-84
2023/05/12 07:56:50;;;;;;;7.73;4.17;;;15.70;1.00;;;;;;5073443;28;20427;-84
2023/05/12 07:59:16;;;;;;;10.50;4.57;;;16.40;99.90;;;;;;5079867;28;20223;-84
2023/05/12 08:01:42;;;;;;;7.03;3.47;;;18.30;1.00;;;;;;5077904;28;20186;-84
2023/05/12 08:04:07;;;;;;;4.97;3.33;;;21.40;1.00;;;;;;5073490;28;20215;-84
2023/05/12 08:06:33;;;;;;;4.80;3.17;;;22.70;99.90;;;;;;5062553;28;20211;-83
2023/05/12 08:08:59;;;;;;;5.90;3.50;;;22.30;99.90;;;;;;5082333;28;20209;-84
2023/05/12 08:11:25;;;;;;;3.77;3.37;;;21.80;99.90;;;;;;5084509;28;20936;-84
2023/05/12 08:13:51;;;;;;;5.73;3.47;;;21.20;99.90;;;;;;5085102;28;20214;-85
2023/05/12 08:16:16;;;;;;;3.30;3.00;;;21.20;99.90;;;;;;5080065;28;20441;-86
2023/05/12 08:18:43;;;;;;;4.50;2.90;;;21.20;99.90;;;;;;5082607;28;20179;-85
2023/05/12 08:21:09;;;;;;;3.80;3.40;;;21.20;99.90;;;;;;5102371;28;20184;-83
2023/05/12 08:23:36;;;;;;;4.53;3.53;;;20.60;99.90;;;;;;5073708;28;20565;-84
2023/05/12 08:26:02;;;;;;;8.87;4.10;;;19.90;99.90;;;;;;5070783;28;20436;-82
2023/05/12 08:28:28;;;;;;;6.20;3.50;;;19.40;1.00;;;;;;5081348;28;20427;-82
2023/05/12 08:30:54;;;;;;;4.20;3.70;;;18.90;1.00;;;;;;5079914;28;20503;-84
2023/05/12 08:33:19;;;;;;;4.67;3.60;;;18.50;1.00;;;;;;5071841;28;20200;-83
2023/05/12 08:35:45;;;;;;;7.67;4.03;;;18.20;1.00;;;;;;5091613;28;20234;-83
2023/05/12 08:38:10;;;;;;;6.27;3.93;;;18.00;1.00;;;;;;5088296;28;20187;-84
2023/05/12 08:41:08;;;;;;;6.20;3.97;;;17.80;21.80;;;;;;5067858;28;20223;-84
2023/05/12 08:43:44;;;;;;;5.80;4.00;;;17.70;99.90;;;;;;5093509;28;20283;-84
2023/05/12 08:46:11;;;;;;;5.67;3.87;;;18.10;99.90;;;;;;5098585;28;20432;-84
2023/05/12 08:48:38;;;;;;;4.50;4.07;;;18.50;33.80;;;;;;5101146;28;20424;-83
2023/05/12 08:51:10;;;;;;;4.60;3.37;;;18.80;1.00;;;;;;5092168;28;20442;-84
2023/05/12 08:53:37;;;;;;;8.63;4.20;;;19.40;1.00;;;;;;5092253;28;20704;-85
2023/05/12 08:56:06;;;;;;;4.70;4.30;;;19.80;1.00;;;;;;5092658;28;20809;-83
2023/05/12 08:58:32;;;;;;;5.50;3.93;;;20.60;1.00;;;;;;5076644;28;20531;-85
2023/05/12 09:01:06;;;;;;;6.87;4.13;;;21.00;99.90;;;;;;5099015;28;20442;-85
2023/05/12 09:03:32;;;;;;;6.27;3.17;;;22.10;99.90;;;;;;5092324;28;20443;-84
2023/05/12 09:05:59;;;;;;;6.03;3.40;;;23.00;99.90;;;;;;5099414;28;20436;-84
2023/05/12 09:08:25;;;;;;;5.43;4.43;;;23.30;99.90;;;;;;5101097;28;20425;-87
2023/05/12 09:10:55;;;;;;;8.23;3.70;;;23.10;99.90;;;;;;5099740;28;20431;-85
2023/05/12 09:13:59;;;;;;;4.30;3.00;;;23.30;99.90;;;;;;5095130;28;20445;-86
2023/05/12 09:16:28;;;;;;;3.87;2.30;;;23.70;99.90;;;;;;5077911;28;20445;-86
2023/05/12 09:18:55;;;;;;;4.23;2.37;;;23.60;99.90;;;;;;5100421;28;20451;-86
2023/05/12 09:21:21;;;;;;;2.80;2.43;;;23.20;99.90;;;;;;5099243;28;20748;-83
2023/05/12 09:23:54;;;;;;;3.53;2.50;;;22.90;99.90;;;;;;5100760;28;20501;-87
2023/05/12 09:26:21;;;;;;;5.57;2.70;;;23.40;99.90;;;;;;5098840;28;20270;-85
2023/05/12 09:28:47;;;;;;;6.00;2.47;;;24.00;99.90;;;;;;5098489;28;20762;-87
2023/05/12 09:31:17;;;;;;;3.20;2.17;;;24.00;99.90;;;;;;5080803;28;20447;-85
2023/05/12 09:33:46;;;;;;;4.80;2.73;;;24.00;99.90;;;;;;5100946;28;20452;-87
2023/05/12 09:36:20;;;;;;;3.23;2.63;;;23.90;99.90;;;;;;5098087;28;20421;-87
2023/05/12 09:38:45;;;;;;;2.77;2.33;;;23.40;99.90;;;;;;5100975;28;20422;-85
2023/05/12 09:41:11;;;;;;;3.20;2.20;;;23.90;99.90;;;;;;5092160;28;20453;-86
2023/05/12 09:43:36;;;;;;;2.17;1.97;;;24.40;99.90;;;;;;5100555;28;20216;-85
2023/05/12 09:46:05;;;;;;;2.30;2.10;;;25.60;99.90;;;;;;5094304;28;20184;-88
2023/05/12 09:48:32;;;;;;;4.27;2.27;;;26.80;99.90;;;;;;5085647;28;20172;-86
2023/05/12 09:50:57;;;;;;;7.57;2.60;;;27.30;99.90;;;;;;5100853;28;20422;-86
2023/05/12 09:53:23;;;;;;;1.93;1.73;;;27.00;99.90;;;;;;5097399;28;20439;-87
2023/05/12 09:55:49;;;;;;;2.20;1.90;;;27.60;99.90;;;;;;5088826;28;20192;-86
2023/05/12 09:58:19;;;;;;;3.70;2.37;;;28.00;99.90;;;;;;5097874;28;20239;-87
2023/05/12 10:00:46;;;;;;;2.37;2.17;;;28.70;99.90;;;;;;5088760;28;20238;-87
2023/05/12 10:03:16;;;;;;;3.40;1.93;;;29.40;99.90;;;;;;5084628;28;20460;-86
2023/05/12 10:06:00;;;;;;;2.87;2.13;;;28.70;99.90;;;;;;5101164;28;20410;-87
2023/05/12 10:08:37;;;;;;;4.23;2.03;;;28.00;99.90;;;;;;5091860;28;20418;-87
2023/05/12 10:11:05;;;;;;;3.07;2.77;;;28.40;99.90;;;;;;5101512;28;20466;-87
2023/05/12 10:13:32;;;;;;;4.10;2.27;;;29.80;99.90;;;;;;5097477;28;20920;-87
2023/05/12 10:15:58;;;;;;;3.83;2.17;;;29.30;99.90;;;;;;5097144;28;20429;-86
2023/05/12 10:18:24;;;;;;;3.10;1.43;;;29.30;99.90;;;;;;5084710;28;20426;-87
2023/05/12 10:20:52;;;;;;;2.47;1.90;;;29.90;99.90;;;;;;5085560;28;20478;-86
2023/05/12 10:23:21;;;;;;;3.87;2.00;;;29.40;99.90;;;;;;5100942;28;20697;-85
2023/05/12 10:25:52;;;;;;;5.67;2.60;;;29.50;99.90;;;;;;5092986;28;20497;-85
2023/05/12 10:28:18;;;;;;;4.23;2.00;;;28.30;99.90;;;;;;5092159;28;20403;-83
2023/05/12 10:30:45;;;;;;;4.13;1.87;;;28.20;99.90;;;;;;5085553;28;20442;-85
2023/05/12 10:33:10;;;;;;;2.50;2.10;;;27.80;99.90;;;;;;5088194;28;20454;-84
2023/05/12 10:35:38;;;;;;;5.27;2.20;;;28.80;99.90;;;;;;5099307;28;20433;-85
2023/05/12 10:38:20;;;;;;;2.27;1.77;;;29.30;99.90;;;;;;5101282;28;20191;-85
2023/05/12 10:41:00;;;;;;;4.43;2.03;;;30.00;99.90;;;;;;5082959;28;20583;-85
2023/05/12 10:50:25;;;;;;;;;;;;;;;;;;;;;
2023/05/12 10:53:23;;;;;;;;;;;;;;;;;;;;;
2023/05/12 10:56:29;;;;;;;3.07;2.50;;;30.30;99.90;;;;;;5078079;28;20508;-85
2023/05/12 10:59:27;;;;;;;4.70;2.33;;;29.40;99.90;;;;;;5095830;28;20481;-85
2023/05/12 11:02:31;;;;;;;;;;;;;;;;;;;;;
2023/05/12 11:05:55;;;;;;;2.43;1.90;;;28.60;99.90;;;;;;5100864;28;20503;-85
2023/05/12 11:08:37;;;;;;;;;;;;;;;;;;;;;
2023/05/12 11:11:03;;;;;;;2.93;2.40;;;30.70;99.90;;;;;;5088697;28;20547;-86
2023/05/12 11:13:35;;;;;;;2.30;2.10;;;31.90;99.90;;;;;;5078877;28;20482;-85
2023/05/12 11:16:29;;;;;;;4.13;2.47;;;32.20;99.90;;;;;;5075283;28;20194;-85
2023/05/12 11:19:32;;;;;;;;;;;;;;;;;;;;;
2023/05/12 11:22:33;;;;;;;5.93;2.60;;;29.80;99.90;;;;;;5094190;28;20509;-84
2023/05/12 11:25:40;;;;;;;3.30;2.50;;;29.60;99.90;;;;;;5097314;28;20509;-84
2023/05/12 11:28:19;;;;;;;5.50;2.90;;;29.30;99.90;;;;;;5067783;28;20426;-86
2023/05/12 11:30:58;;;;;;;4.93;2.77;;;28.60;99.90;;;;;;5066764;28;20498;-85
2023/05/12 11:34:06;;;;;;;2.90;2.67;;;28.20;99.90;;;;;;5079947;28;20538;-84
2023/05/12 11:37:19;;;;;;;6.50;2.40;;;27.40;99.90;;;;;;5089165;28;20862;-85
2023/05/12 11:39:47;;;;;;;4.20;2.57;;;27.20;99.90;;;;;;5092632;28;20418;-85
2023/05/12 11:42:25;;;;;;;3.00;2.70;;;27.00;99.90;;;;;;5089227;28;20421;-85
2023/05/12 11:45:21;;;;;;;3.63;2.77;;;26.90;99.90;;;;;;5097608;28;20510;-84
2023/05/12 11:47:45;;;;;;;7.50;3.73;;;26.70;99.90;;;;;;5084910;28;20494;-85
2023/05/12 11:50:20;;;;;;;4.27;3.00;;;26.30;99.90;;;;;;5076416;28;20466;-84
2023/05/12 11:52:48;;;;;;;5.33;3.00;;;25.80;99.90;;;;;;5098444;28;20440;-85
2023/05/12 11:55:22;;;;;;;3.23;2.93;;;25.50;99.90;;;;;;5097640;28;20421;-85
2023/05/12 11:58:01;;;;;;;2.67;2.47;;;25.30;99.90;;;;;;5092274;28;20471;-85
2023/05/12 12:00:32;;;;;;;3.50;2.80;;;25.20;99.90;;;;;;5101566;28;20441;-86
2023/05/12 12:03:06;;;;;;;3.90;3.30;;;25.00;99.90;;;;;;5102936;28;20805;-85
2023/05/12 12:05:31;;;;;;;4.20;3.47;;;24.60;99.90;;;;;;5090060;28;20461;-85
2023/05/12 12:08:06;;;;;;;5.60;3.70;;;24.40;99.90;;;;;;5096739;28;20425;-85
2023/05/12 12:10:32;;;;;;;4.30;3.53;;;24.90;99.90;;;;;;5091662;28;20199;-84
2023/05/12 12:12:59;;;;;;;3.70;3.40;;;25.00;99.90;;;;;;5082718;28;20832;-83
2023/05/12 12:15:25;;;;;;;5.07;3.10;;;24.80;99.90;;;;;;5086699;28;20210;-83
2023/05/12 12:17:50;;;;;;;5.30;3.00;;;24.80;99.90;;;;;;5086797;28;20434;-87
2023/05/12 12:20:17;;;;;;;3.13;2.83;;;25.60;99.90;;;;;;5101244;28;20196;-86
2023/05/12 12:22:43;;;;;;;4.30;3.40;;;26.50;99.90;;;;;;5094909;28;20200;-86
2023/05/12 12:25:08;;;;;;;3.50;3.20;;;27.10;99.90;;;;;;5090398;28;20411;-87
2023/05/12 12:27:37;;;;;;;3.23;2.83;;;28.10;99.90;;;;;;5085908;28;20180;-85
2023/05/12 12:30:03;;;;;;;3.03;2.83;;;28.60;99.90;;;;;;5103753;28;20522;-85
2023/05/12 12:32:28;;;;;;;4.70;2.90;;;28.30;99.90;;;;;;5089543;28;20455;-86
2023/05/12 12:34:58;;;;;;;6.63;2.63;;;27.90;99.90;;;;;;5084134;28;20219;-86
2023/05/12 12:37:24;;;;;;;4.00;3.57;;;27.90;99.90;;;;;;5083207;28;20173;-85
2023/05/12 12:39:50;;;;;;;4.13;2.67;;;28.20;99.90;;;;;;5090029;28;20795;-86
2023/05/12 12:42:15;;;;;;;2.40;2.20;;;28.40;99.90;;;;;;5093005;28;20474;-87
2023/05/12 12:44:41;;;;;;;6.00;3.10;;;28.90;99.90;;;;;;5083957;28;20189;-85
2023/05/12 12:47:07;;;;;;;4.20;2.87;;;28.80;99.90;;;;;;5110536;28;20252;-86
2023/05/12 12:49:33;;;;;;;6.27;2.77;;;28.70;99.90;;;;;;5098542;28;20196;-86
2023/05/12 12:51:58;;;;;;;3.30;3.00;;;29.10;99.90;;;;;;5100852;28;20904;-86
2023/05/12 12:54:25;;;;;;;3.23;2.83;;;29.60;99.90;;;;;;5094849;28;20466;-86
2023/05/12 12:56:51;;;;;;;5.67;2.83;;;30.20;99.90;;;;;;5067100;28;20228;-85
2023/05/12 12:59:23;;;;;;;4.60;2.80;;;30.30;99.90;;;;;;5089591;28;20789;-86
2023/05/12 13:01:49;;;;;;;6.13;3.17;;;29.90;99.90;;;;;;5100969;28;20578;-86
2023/05/12 13:04:21;;;;;;;2.40;2.20;;;29.30;99.90;;;;;;5104283;28;20454;-86
2023/05/12 13:06:46;;;;;;;4.87;2.97;;;28.40;99.90;;;;;;5100261;28;20188;-86